createdAt,value
2018-04-25T00:00:26.089Z,13.10
2018-04-25T00:02:53.721Z,13.80
2018-04-25T00:05:22.203Z,13.43
2018-04-25T00:07:49.869Z,13.53
2018-04-25T00:10:17.529Z,14.17
2018-04-25T00:12:45.119Z,14.27
2018-04-25T00:15:12.757Z,14.50
2018-04-25T00:17:41.233Z,14.37
2018-04-25T00:20:09.646Z,15.10
2018-04-25T00:22:37.284Z,14.33
2018-04-25T00:25:04.911Z,13.97
2018-04-25T00:27:32.508Z,14.07
2018-04-25T00:30:00.086Z,13.50
2018-04-25T00:32:27.737Z,13.27
2018-04-25T00:34:56.241Z,13.03
2018-04-25T00:37:24.607Z,13.43
2018-04-25T00:39:52.308Z,13.80
2018-04-25T00:42:19.885Z,13.03
2018-04-25T00:44:47.464Z,13.80
2018-04-25T00:47:15.041Z,12.50
2018-04-25T00:49:42.709Z,14.00
2018-04-25T00:52:10.291Z,14.07
2018-04-25T00:54:37.897Z,14.20
2018-04-25T00:57:05.473Z,14.50
2018-04-25T00:59:33.150Z,12.70
2018-04-25T01:02:00.733Z,11.43
2018-04-25T01:04:29.292Z,13.63
2018-04-25T01:06:57.673Z,12.07
2018-04-25T01:09:25.283Z,12.83
2018-04-25T01:11:53.893Z,13.73
2018-04-25T01:14:21.489Z,13.60
2018-04-25T01:16:49.098Z,13.30
2018-04-25T01:19:16.718Z,13.17
2018-04-25T01:21:44.368Z,14.30
2018-04-25T01:24:11.950Z,12.97
2018-04-25T01:26:39.597Z,13.47
2018-04-25T01:29:07.181Z,12.43
2018-04-25T01:31:37.673Z,14.23
2018-04-25T01:34:06.881Z,11.83
2018-04-25T01:36:37.936Z,12.30
2018-04-25T01:39:09.477Z,11.80
2018-04-25T01:41:37.059Z,12.93
2018-04-25T01:44:08.530Z,12.03
2018-04-25T01:46:36.112Z,12.07
2018-04-25T01:49:13.173Z,12.27
2018-04-25T01:51:52.493Z,11.43
2018-04-25T01:54:31.858Z,10.70
2018-04-25T01:57:11.174Z,10.90
2018-04-25T01:59:50.509Z,12.50
2018-04-25T02:02:17.550Z,12.13
2018-04-25T02:04:45.129Z,11.17
2018-04-25T02:07:13.488Z,12.30
2018-04-25T02:09:41.103Z,11.80
2018-04-25T02:12:08.685Z,12.30
2018-04-25T02:14:36.293Z,11.77
2018-04-25T02:17:03.872Z,12.53
2018-04-25T02:19:31.502Z,11.30
2018-04-25T02:21:59.091Z,12.03
2018-04-25T02:24:26.682Z,12.50
2018-04-25T02:26:54.269Z,11.13
2018-04-25T02:29:21.854Z,12.53
2018-04-25T02:31:49.489Z,12.30
2018-04-25T02:34:17.069Z,12.63
2018-04-25T02:36:44.687Z,13.07
2018-04-25T02:39:12.306Z,12.87
2018-04-25T02:41:39.889Z,12.00
2018-04-25T02:44:07.506Z,12.60
2018-04-25T02:46:35.082Z,12.90
2018-04-25T02:49:02.711Z,11.77
2018-04-25T02:51:30.311Z,11.60
2018-04-25T02:53:57.923Z,12.30
2018-04-25T02:56:25.580Z,13.33
2018-04-25T02:58:53.176Z,11.87
2018-04-25T03:01:20.797Z,12.17
2018-04-25T03:03:48.409Z,14.80
2018-04-25T03:06:16.058Z,12.70
2018-04-25T03:08:43.677Z,13.27
2018-04-25T03:11:11.268Z,14.80
2018-04-25T03:13:38.882Z,13.03
2018-04-25T03:16:06.469Z,13.47
2018-04-25T03:18:34.051Z,13.43
2018-04-25T03:21:01.634Z,13.00
2018-04-25T03:23:29.252Z,13.10
2018-04-25T03:25:56.837Z,13.30
2018-04-25T03:28:24.422Z,12.63
2018-04-25T03:30:52.045Z,12.60
2018-04-25T03:33:19.633Z,13.00
2018-04-25T03:35:47.297Z,12.37
2018-04-25T03:38:14.961Z,12.30
2018-04-25T03:40:42.541Z,13.67
2018-04-25T03:43:10.121Z,12.90
2018-04-25T03:45:37.710Z,12.27
2018-04-25T03:48:05.289Z,13.70
2018-04-25T03:50:33.044Z,13.00
2018-04-25T03:53:00.614Z,11.33
2018-04-25T03:55:28.239Z,11.40
2018-04-25T03:57:55.831Z,13.10
2018-04-25T04:00:23.421Z,11.43
2018-04-25T04:02:51.002Z,13.20
2018-04-25T04:05:18.580Z,14.57
2018-04-25T04:07:46.157Z,13.10
2018-04-25T04:10:14.683Z,15.00
2018-04-25T04:12:42.261Z,12.23
2018-04-25T04:15:09.841Z,11.40
2018-04-25T04:17:37.422Z,12.10
2018-04-25T04:20:05.140Z,12.70
2018-04-25T04:22:32.721Z,13.00
2018-04-25T04:25:01.310Z,12.20
2018-04-25T04:27:28.894Z,12.30
2018-04-25T04:29:56.468Z,12.30
2018-04-25T04:32:24.050Z,11.73
2018-04-25T04:34:51.673Z,12.43
2018-04-25T04:37:19.258Z,12.07
2018-04-25T04:39:46.841Z,11.27
2018-04-25T04:42:14.421Z,11.17
2018-04-25T04:44:42.029Z,11.53
2018-04-25T04:47:09.610Z,12.97
2018-04-25T04:49:38.140Z,11.80
2018-04-25T04:52:05.751Z,11.57
2018-04-25T04:54:33.437Z,11.10
2018-04-25T04:57:01.065Z,11.80
2018-04-25T04:59:28.649Z,10.47
2018-04-25T05:01:56.320Z,10.60
2018-04-25T05:04:23.962Z,10.63
2018-04-25T05:06:51.710Z,10.13
2018-04-25T05:09:20.262Z,9.73
2018-04-25T05:11:47.934Z,9.43
2018-04-25T05:14:15.567Z,10.13
2018-04-25T05:16:43.161Z,9.67
2018-04-25T05:19:10.889Z,11.33
2018-04-25T05:21:38.474Z,9.47
2018-04-25T05:24:06.113Z,8.00
2018-04-25T05:26:33.778Z,9.63
2018-04-25T05:29:01.369Z,10.20
2018-04-25T05:31:29.004Z,8.20
2018-04-25T05:33:56.601Z,27.87
2018-04-25T05:36:24.219Z,18.60
2018-04-25T05:38:51.801Z,9.97
2018-04-25T05:41:19.421Z,7.90
2018-04-25T05:43:47.003Z,7.53
2018-04-25T05:46:14.678Z,7.53
2018-04-25T05:48:42.265Z,8.37
2018-04-25T05:51:09.862Z,7.07
2018-04-25T05:53:37.442Z,7.53
2018-04-25T05:56:05.029Z,6.40
2018-04-25T05:58:32.637Z,6.30
2018-04-25T06:01:00.224Z,5.90
2018-04-25T06:03:27.807Z,6.00
2018-04-25T06:05:55.426Z,6.20
2018-04-25T06:08:23.004Z,5.93
2018-04-25T06:10:50.615Z,6.40
2018-04-25T06:13:18.242Z,5.60
2018-04-25T06:15:45.908Z,5.70
2018-04-25T06:18:13.572Z,5.73
2018-04-25T06:20:41.958Z,5.60
2018-04-25T06:23:09.542Z,5.93
2018-04-25T06:25:37.165Z,6.40
2018-04-25T06:28:04.792Z,5.20
2018-04-25T06:30:32.370Z,6.20
2018-04-25T06:32:59.956Z,6.30
2018-04-25T06:35:27.540Z,5.47
2018-04-25T06:37:55.153Z,4.70
2018-04-25T06:40:22.733Z,5.33
2018-04-25T06:42:50.310Z,5.53
2018-04-25T06:45:17.897Z,4.80
2018-04-25T06:47:45.481Z,4.70
2018-04-25T06:50:13.126Z,5.07
2018-04-25T06:52:40.752Z,6.20
2018-04-25T06:55:08.345Z,4.60
2018-04-25T06:57:35.929Z,4.50
2018-04-25T07:00:03.536Z,5.20
2018-04-25T07:02:31.115Z,5.30
2018-04-25T07:04:58.703Z,5.00
2018-04-25T07:07:26.289Z,5.20
2018-04-25T07:09:53.877Z,5.67
2018-04-25T07:12:21.459Z,4.97
2018-04-25T07:14:49.078Z,4.57
2018-04-25T07:17:16.769Z,4.90
2018-04-25T07:19:44.351Z,4.97
2018-04-25T07:22:11.926Z,5.00
2018-04-25T07:24:39.515Z,4.87
2018-04-25T07:27:07.099Z,6.50
2018-04-25T07:29:34.689Z,5.27
2018-04-25T07:32:02.323Z,5.70
2018-04-25T07:34:38.080Z,5.30
2018-04-25T07:37:05.692Z,4.20
2018-04-25T07:39:33.269Z,4.70
2018-04-25T07:42:00.965Z,4.63
2018-04-25T07:44:28.481Z,5.70
2018-04-25T07:46:56.097Z,4.70
2018-04-25T07:49:23.665Z,5.30
2018-04-25T07:51:51.282Z,5.20
2018-04-25T07:54:18.862Z,6.30
2018-04-25T07:56:46.436Z,5.47
2018-04-25T07:59:15.923Z,5.30
2018-04-25T08:01:43.501Z,5.37
2018-04-25T08:04:11.115Z,6.47
2018-04-25T08:06:38.703Z,6.13
2018-04-25T08:09:06.314Z,6.23
2018-04-25T08:11:33.900Z,5.67
2018-04-25T08:14:13.260Z,6.00
2018-04-25T08:16:52.668Z,6.27
2018-04-25T08:19:31.984Z,5.90
2018-04-25T08:21:59.550Z,5.87
2018-04-25T08:24:27.122Z,5.97
2018-04-25T08:26:54.734Z,5.80
2018-04-25T08:29:22.306Z,5.40
2018-04-25T08:31:49.928Z,5.40
2018-04-25T08:34:17.616Z,5.77
2018-04-25T08:36:45.181Z,5.20
2018-04-25T08:39:12.788Z,5.40
2018-04-25T08:41:40.396Z,5.30
2018-04-25T08:44:08.004Z,5.13
2018-04-25T08:46:35.584Z,6.43
2018-04-25T08:49:03.176Z,6.13
2018-04-25T08:51:30.754Z,6.03
2018-04-25T08:53:58.338Z,5.70
2018-04-25T08:56:25.920Z,6.77
2018-04-25T08:58:53.531Z,5.80
2018-04-25T09:01:21.358Z,5.50
2018-04-25T09:03:48.932Z,6.30
2018-04-25T09:06:16.541Z,5.57
2018-04-25T09:08:44.114Z,6.00
2018-04-25T09:11:11.722Z,5.43
2018-04-25T09:13:39.302Z,7.50
2018-04-25T09:16:06.915Z,7.20
2018-04-25T09:18:34.493Z,6.60
2018-04-25T09:21:02.097Z,5.33
2018-04-25T09:23:29.676Z,5.80
2018-04-25T09:25:57.246Z,5.73
2018-04-25T09:28:24.821Z,5.93
2018-04-25T09:30:52.406Z,5.27
2018-04-25T09:33:20.026Z,6.27
2018-04-25T09:35:47.633Z,6.23
2018-04-25T09:38:15.214Z,5.73
2018-04-25T09:40:42.822Z,5.63
2018-04-25T09:43:10.401Z,5.80
2018-04-25T09:45:37.979Z,5.40
2018-04-25T09:48:05.554Z,5.83
2018-04-25T09:50:33.139Z,5.13
2018-04-25T09:53:00.714Z,6.27
2018-04-25T09:55:28.294Z,6.00
2018-04-25T09:57:56.045Z,6.17
2018-04-25T10:03:23.468Z,6.63
2018-04-25T10:05:51.126Z,7.33
2018-04-25T10:08:18.752Z,7.10
2018-04-25T10:10:46.358Z,6.50
2018-04-25T10:13:13.951Z,7.50
2018-04-25T10:15:41.531Z,7.20
2018-04-25T10:18:09.153Z,8.23
2018-04-25T10:20:36.729Z,6.77
2018-04-25T10:23:04.314Z,6.67
2018-04-25T10:25:31.926Z,7.13
2018-04-25T10:27:59.506Z,6.40
2018-04-25T10:30:27.087Z,6.07
2018-04-25T10:32:54.692Z,6.10
2018-04-25T10:35:22.313Z,5.80
2018-04-25T10:37:49.881Z,9.00
2018-04-25T10:40:17.458Z,6.37
2018-04-25T10:42:45.027Z,6.00
2018-04-25T10:45:12.601Z,8.43
2018-04-25T10:47:40.252Z,6.07
2018-04-25T10:50:07.827Z,5.70
2018-04-25T10:52:35.392Z,5.10
2018-04-25T10:55:02.970Z,4.87
2018-04-25T10:57:30.613Z,5.10
2018-04-25T10:59:58.181Z,5.33
2018-04-25T11:02:25.805Z,4.90
2018-04-25T11:04:53.361Z,6.27
2018-04-25T11:07:20.990Z,7.30
2018-04-25T11:09:48.554Z,10.07
2018-04-25T11:12:16.131Z,6.10
2018-04-25T11:14:44.439Z,7.77
2018-04-25T11:17:12.022Z,6.20
2018-04-25T11:19:39.632Z,9.73
2018-04-25T11:22:07.206Z,7.73
2018-04-25T11:24:34.858Z,4.93
2018-04-25T11:27:02.425Z,4.00
2018-04-25T11:29:30.007Z,7.00
2018-04-25T11:31:57.634Z,7.03
2018-04-25T11:34:25.186Z,5.60
2018-04-25T11:36:53.590Z,9.73
2018-04-25T11:39:21.169Z,4.90
2018-04-25T11:41:48.751Z,4.33
2018-04-25T11:44:16.373Z,3.77
2018-04-25T11:46:43.956Z,6.10
2018-04-25T11:49:11.535Z,5.80
2018-04-25T11:51:39.117Z,5.97
2018-04-25T11:54:06.689Z,6.13
2018-04-25T11:56:34.306Z,6.33
2018-04-25T11:59:01.887Z,7.83
2018-04-25T12:01:29.472Z,7.73
2018-04-25T12:03:57.105Z,8.53
2018-04-25T12:06:24.688Z,9.57
2018-04-25T12:08:52.264Z,9.10
2018-04-25T12:11:19.845Z,9.30
2018-04-25T12:13:47.430Z,10.70
2018-04-25T12:16:15.010Z,7.50
2018-04-25T12:18:42.602Z,6.87
2018-04-25T12:21:10.185Z,7.07
2018-04-25T12:23:37.757Z,5.93
2018-04-25T12:26:05.337Z,6.20
2018-04-25T12:28:32.911Z,4.83
2018-04-25T12:31:00.485Z,4.57
2018-04-25T12:33:28.098Z,4.00
2018-04-25T12:35:55.762Z,3.53
2018-04-25T12:38:23.289Z,3.50
2018-04-25T12:40:51.543Z,2.77
2018-04-25T12:43:19.406Z,2.50
2018-04-25T12:45:46.987Z,2.83
2018-04-25T12:48:14.630Z,2.90
2018-04-25T12:50:42.326Z,3.00
2018-04-25T12:53:09.963Z,2.53
2018-04-25T12:55:38.319Z,2.63
2018-04-25T12:58:05.968Z,2.87
2018-04-25T13:00:33.586Z,2.97
2018-04-25T13:03:01.175Z,3.07
2018-04-25T13:05:28.787Z,3.40
2018-04-25T13:07:56.361Z,2.83
2018-04-25T13:10:24.007Z,3.10
2018-04-25T13:12:51.591Z,3.73
2018-04-25T13:15:19.193Z,3.50
2018-04-25T13:17:46.766Z,2.80
2018-04-25T13:20:14.345Z,2.73
2018-04-25T13:22:41.917Z,2.50
2018-04-25T13:25:09.488Z,2.00
2018-04-25T13:27:37.070Z,2.33
2018-04-25T13:30:04.650Z,2.30
2018-04-25T13:32:32.240Z,2.47
2018-04-25T13:34:59.813Z,2.60
2018-04-25T13:37:27.414Z,2.83
2018-04-25T13:39:55.108Z,2.17
2018-04-25T13:42:22.749Z,2.10
2018-04-25T13:44:50.307Z,1.80
2018-04-25T13:47:17.889Z,2.67
2018-04-25T13:49:45.465Z,3.50
2018-04-25T13:52:13.983Z,2.80
2018-04-25T13:54:41.641Z,2.70
2018-04-25T13:57:09.218Z,2.97
2018-04-25T13:59:36.798Z,3.47
2018-04-25T14:02:04.502Z,2.40
2018-04-25T14:04:32.233Z,2.10
2018-04-25T14:06:59.856Z,3.10
2018-04-25T14:09:27.521Z,2.13
2018-04-25T14:11:55.225Z,1.30
2018-04-25T14:14:22.797Z,1.90
2018-04-25T14:16:50.370Z,1.30
2018-04-25T14:19:17.969Z,1.70
2018-04-25T14:21:45.544Z,1.27
2018-04-25T14:24:13.226Z,3.57
2018-04-25T14:26:40.803Z,1.40
2018-04-25T14:29:08.384Z,1.80
2018-04-25T14:31:36.872Z,1.90
2018-04-25T14:34:04.449Z,1.70
2018-04-25T14:36:32.056Z,1.40
2018-04-25T14:38:59.634Z,1.20
2018-04-25T14:41:27.242Z,2.43
2018-04-25T14:43:55.625Z,2.10
2018-04-25T14:46:23.202Z,1.60
2018-04-25T14:48:50.778Z,2.33
2018-04-25T14:51:18.356Z,2.13
2018-04-25T14:53:45.929Z,1.33
2018-04-25T14:56:13.502Z,1.47
2018-04-25T14:58:41.083Z,2.07
2018-04-25T15:01:08.664Z,1.77
2018-04-25T15:03:36.247Z,4.30
2018-04-25T15:08:37.626Z,1.60
2018-04-25T15:11:05.210Z,1.70
2018-04-25T15:13:32.809Z,1.27
2018-04-25T15:16:00.383Z,1.13
2018-04-25T15:18:27.952Z,2.67
2018-04-25T15:20:55.530Z,1.60
2018-04-25T15:23:23.106Z,1.80
2018-04-25T15:25:50.682Z,1.40
2018-04-25T15:28:18.262Z,1.50
2018-04-25T15:30:45.841Z,1.33
2018-04-25T15:33:13.417Z,1.00
2018-04-25T15:35:40.988Z,1.40
2018-04-25T15:38:08.561Z,1.47
2018-04-25T15:40:36.141Z,0.93
2018-04-25T15:43:03.714Z,1.43
2018-04-25T15:45:31.285Z,1.23
2018-04-25T15:47:58.865Z,1.23
2018-04-25T15:50:26.433Z,1.30
2018-04-25T15:52:54.005Z,0.90
2018-04-25T15:55:21.586Z,1.30
2018-04-25T15:57:49.873Z,1.37
2018-04-25T16:00:17.454Z,1.10
2018-04-25T16:02:45.100Z,0.90
2018-04-25T16:05:12.672Z,0.90
2018-04-25T16:07:40.246Z,1.10
2018-04-25T16:10:07.822Z,1.07
2018-04-25T16:12:35.455Z,1.10
2018-04-25T16:15:03.018Z,0.70
2018-04-25T16:17:30.609Z,1.03
2018-04-25T16:19:58.189Z,1.00
2018-04-25T16:22:25.884Z,1.10
2018-04-25T16:24:53.498Z,1.10
2018-04-25T16:27:21.075Z,1.33
2018-04-25T16:29:49.004Z,1.13
2018-04-25T16:32:16.583Z,1.20
2018-04-25T16:34:44.195Z,1.53
2018-04-25T16:37:11.864Z,1.37
2018-04-25T16:39:39.440Z,1.33
2018-04-25T16:42:07.018Z,1.07
2018-04-25T16:44:34.610Z,1.03
2018-04-25T16:47:02.261Z,1.43
2018-04-25T16:49:29.842Z,1.70
2018-04-25T16:51:57.418Z,1.33
2018-04-25T16:54:24.994Z,1.10
2018-04-25T16:56:52.587Z,1.00
2018-04-25T16:59:20.165Z,1.20
2018-04-25T17:01:47.751Z,0.90
2018-04-25T17:04:15.369Z,0.90
2018-04-25T17:06:42.955Z,1.37
2018-04-25T17:09:10.590Z,1.20
2018-04-25T17:11:38.173Z,1.20
2018-04-25T17:14:05.757Z,1.40
2018-04-25T17:16:33.343Z,1.20
2018-04-25T17:19:00.922Z,1.27
2018-04-25T17:21:28.497Z,1.47
2018-04-25T17:23:56.099Z,1.23
2018-04-25T17:26:23.674Z,1.13
2018-04-25T17:28:51.250Z,0.90
2018-04-25T17:31:18.894Z,1.30
2018-04-25T17:33:46.466Z,1.20
2018-04-25T17:36:14.054Z,1.00
2018-04-25T17:38:41.658Z,1.10
2018-04-25T17:41:09.275Z,1.30
2018-04-25T17:43:36.951Z,1.00
2018-04-25T17:46:04.530Z,1.37
2018-04-25T17:48:32.303Z,1.33
2018-04-25T17:50:59.884Z,1.17
2018-04-25T17:53:27.465Z,1.20
2018-04-25T17:55:55.067Z,1.10
2018-04-25T17:58:22.727Z,1.30
2018-04-25T18:00:50.310Z,0.93
2018-04-25T18:03:18.041Z,56.33
2018-04-25T18:05:45.577Z,1.57
2018-04-25T18:08:14.192Z,1.93
2018-04-25T18:10:41.771Z,1.10
2018-04-25T18:13:09.379Z,1.20
2018-04-25T18:15:37.013Z,1.10
2018-04-25T18:18:04.593Z,0.90
2018-04-25T18:20:32.167Z,1.10
2018-04-25T18:22:59.766Z,1.30
2018-04-25T18:25:27.360Z,1.43
2018-04-25T18:27:55.011Z,1.30
2018-04-25T18:30:22.726Z,1.23
2018-04-25T18:32:50.271Z,1.17
2018-04-25T18:35:17.886Z,1.17
2018-04-25T18:37:45.470Z,1.20
2018-04-25T18:40:13.489Z,1.20
2018-04-25T18:42:41.229Z,0.93
2018-04-25T18:45:08.941Z,1.20
2018-04-25T18:47:36.606Z,1.17
2018-04-25T18:50:04.305Z,1.33
2018-04-25T18:52:31.986Z,1.23
2018-04-25T18:54:59.694Z,1.40
2018-04-25T18:57:27.395Z,1.40
2018-04-25T18:59:55.022Z,1.40
2018-04-25T19:02:22.617Z,1.70
2018-04-25T19:04:50.201Z,1.33
2018-04-25T19:07:17.780Z,1.10
2018-04-25T19:09:45.358Z,1.60
2018-04-25T19:12:12.945Z,1.20
2018-04-25T19:14:40.593Z,1.40
2018-04-25T19:17:08.174Z,1.30
2018-04-25T19:19:35.780Z,1.20
2018-04-25T19:22:03.411Z,1.40
2018-04-25T19:24:30.994Z,1.33
2018-04-25T19:26:58.595Z,1.33
2018-04-25T19:29:26.259Z,1.03
2018-04-25T19:31:53.922Z,1.30
2018-04-25T19:34:21.533Z,1.17
2018-04-25T19:36:49.116Z,1.80
2018-04-25T19:39:17.610Z,2.30
2018-04-25T19:41:45.190Z,2.10
2018-04-25T19:44:13.068Z,1.90
2018-04-25T19:46:40.645Z,1.50
2018-04-25T19:49:08.228Z,1.50
2018-04-25T19:51:35.811Z,1.30
2018-04-25T19:54:03.399Z,2.00
2018-04-25T19:56:30.970Z,1.50
2018-04-25T19:58:58.556Z,1.57
2018-04-25T20:01:26.219Z,1.50
2018-04-25T20:03:53.846Z,1.40
2018-04-25T20:06:21.427Z,1.50
2018-04-25T20:08:49.123Z,1.63
2018-04-25T20:11:16.701Z,1.70
2018-04-25T20:13:50.650Z,1.67
2018-04-25T20:16:18.265Z,1.33
2018-04-25T20:18:45.842Z,1.47
2018-04-25T20:21:13.420Z,1.70
2018-04-25T20:23:41.138Z,1.50
2018-04-25T20:26:09.541Z,1.40
2018-04-25T20:28:37.116Z,1.50
2018-04-25T20:31:04.740Z,1.10
2018-04-25T20:33:33.053Z,1.50
2018-04-25T20:36:01.413Z,1.30
2018-04-25T20:38:29.849Z,1.40
2018-04-25T20:40:57.425Z,1.70
2018-04-25T20:43:25.066Z,1.93
2018-04-25T20:45:52.641Z,1.40
2018-04-25T20:48:20.210Z,1.70
2018-04-25T20:50:47.828Z,1.63
2018-04-25T20:53:16.131Z,1.90
2018-04-25T20:55:43.707Z,1.30
2018-04-25T20:58:11.350Z,1.90
2018-04-25T21:00:38.950Z,1.50
2018-04-25T21:03:06.527Z,1.93
2018-04-25T21:05:34.130Z,2.10
2018-04-25T21:08:01.706Z,1.63
2018-04-25T21:10:29.283Z,1.90
2018-04-25T21:12:56.894Z,1.60
2018-04-25T21:15:24.498Z,2.00
2018-04-25T21:17:52.075Z,1.83
2018-04-25T21:20:19.738Z,2.10
2018-04-25T21:22:47.315Z,2.00
2018-04-25T21:25:14.931Z,2.00
2018-04-25T21:27:42.512Z,1.90
2018-04-25T21:30:10.198Z,1.97
2018-04-25T21:32:37.779Z,2.07
2018-04-25T21:35:05.355Z,1.77
2018-04-25T21:37:33.036Z,2.20
2018-04-25T21:40:00.614Z,1.43
2018-04-25T21:42:28.191Z,1.80
2018-04-25T21:44:55.797Z,1.60
2018-04-25T21:47:23.379Z,1.83
2018-04-25T21:49:50.971Z,1.57
2018-04-25T21:52:18.559Z,2.37
2018-04-25T21:54:46.152Z,2.03
2018-04-25T21:57:13.736Z,2.17
2018-04-25T21:59:41.309Z,1.80
2018-04-25T22:02:08.882Z,1.93
2018-04-25T22:04:36.559Z,1.90
2018-04-25T22:07:04.138Z,1.80
2018-04-25T22:09:31.709Z,2.57
2018-04-25T22:11:59.347Z,1.80
2018-04-25T22:14:27.002Z,1.90
2018-04-25T22:16:54.579Z,1.77
2018-04-25T22:19:22.146Z,2.10
2018-04-25T22:21:49.787Z,2.03
2018-04-25T22:24:17.361Z,2.00
2018-04-25T22:26:44.939Z,1.90
2018-04-25T22:29:12.545Z,2.50
2018-04-25T22:31:40.117Z,2.10
2018-04-25T22:34:07.719Z,1.90
2018-04-25T22:36:35.291Z,2.00
2018-04-25T22:39:02.976Z,1.87
2018-04-25T22:41:30.544Z,1.97
2018-04-25T22:43:58.117Z,2.20
2018-04-25T22:46:25.690Z,2.50
2018-04-25T22:48:53.367Z,2.60
2018-04-25T22:51:22.759Z,2.87
2018-04-25T22:53:50.343Z,2.70
2018-04-25T22:56:17.915Z,2.57
2018-04-25T22:58:45.561Z,2.60
2018-04-25T23:01:13.201Z,2.30
2018-04-25T23:03:40.886Z,2.37
2018-04-25T23:06:08.461Z,2.47
2018-04-25T23:08:36.040Z,2.57
2018-04-25T23:11:03.621Z,2.63
2018-04-25T23:13:31.235Z,2.33
2018-04-25T23:15:58.930Z,2.13
2018-04-25T23:18:26.594Z,2.40
2018-04-25T23:20:54.172Z,2.63
2018-04-25T23:23:21.746Z,3.00
2018-04-25T23:25:49.318Z,3.00
2018-04-25T23:28:16.894Z,3.73
2018-04-25T23:30:44.518Z,2.80
2018-04-25T23:33:12.123Z,3.47
2018-04-25T23:35:39.741Z,3.07
2018-04-25T23:38:07.349Z,3.00
2018-04-25T23:40:34.927Z,3.13
2018-04-25T23:43:02.579Z,2.53
2018-04-25T23:45:30.155Z,2.70
2018-04-25T23:47:57.800Z,3.00
2018-04-25T23:50:25.381Z,3.57
2018-04-25T23:52:52.957Z,3.03
2018-04-25T23:55:20.535Z,2.60
2018-04-25T23:57:48.247Z,2.87
